sensor_id;sensor_type;location;lat;lon;timestamp;temperature;humidity
73780;SHT30;62093;37.614;15.072;2023-04-21T00:01:12;16.28;63.05
73780;SHT30;62093;37.614;15.072;2023-04-21T00:03:38;16.26;63.06
73780;SHT30;62093;37.614;15.072;2023-04-21T00:06:04;16.26;63.09
73780;SHT30;62093;37.614;15.072;2023-04-21T00:08:34;16.26;63.08
73780;SHT30;62093;37.614;15.072;2023-04-21T00:11:05;16.25;63.12
73780;SHT30;62093;37.614;15.072;2023-04-21T00:13:32;16.23;63.14
73780;SHT30;62093;37.614;15.072;2023-04-21T00:15:59;16.25;63.11
73780;SHT30;62093;37.614;15.072;2023-04-21T00:18:25;16.23;63.10
73780;SHT30;62093;37.614;15.072;2023-04-21T00:20:52;16.21;63.18
73780;SHT30;62093;37.614;15.072;2023-04-21T00:23:18;16.21;63.18
73780;SHT30;62093;37.614;15.072;2023-04-21T00:25:44;16.19;63.22
73780;SHT30;62093;37.614;15.072;2023-04-21T00:28:09;16.21;63.16
73780;SHT30;62093;37.614;15.072;2023-04-21T00:30:36;16.19;63.22
73780;SHT30;62093;37.614;15.072;2023-04-21T00:33:03;16.18;63.26
73780;SHT30;62093;37.614;15.072;2023-04-21T00:35:29;16.19;63.22
73780;SHT30;62093;37.614;15.072;2023-04-21T00:37:55;16.19;63.22
73780;SHT30;62093;37.614;15.072;2023-04-21T00:40:21;16.19;63.24
73780;SHT30;62093;37.614;15.072;2023-04-21T00:42:47;16.19;63.26
73780;SHT30;62093;37.614;15.072;2023-04-21T00:45:13;16.18;63.31
73780;SHT30;62093;37.614;15.072;2023-04-21T00:47:42;16.19;63.34
73780;SHT30;62093;37.614;15.072;2023-04-21T00:50:10;16.19;63.32
73780;SHT30;62093;37.614;15.072;2023-04-21T00:52:38;16.19;63.32
73780;SHT30;62093;37.614;15.072;2023-04-21T00:55:07;16.19;63.34
73780;SHT30;62093;37.614;15.072;2023-04-21T00:57:35;16.21;63.31
73780;SHT30;62093;37.614;15.072;2023-04-21T01:00:02;16.19;63.28
73780;SHT30;62093;37.614;15.072;2023-04-21T01:02:30;16.19;63.31
73780;SHT30;62093;37.614;15.072;2023-04-21T01:04:57;16.18;63.28
73780;SHT30;62093;37.614;15.072;2023-04-21T01:07:24;16.18;63.31
73780;SHT30;62093;37.614;15.072;2023-04-21T01:09:50;16.19;63.29
73780;SHT30;62093;37.614;15.072;2023-04-21T01:12:15;16.21;63.17
73780;SHT30;62093;37.614;15.072;2023-04-21T01:14:41;16.18;63.25
73780;SHT30;62093;37.614;15.072;2023-04-21T01:17:09;16.18;63.21
73780;SHT30;62093;37.614;15.072;2023-04-21T01:19:39;16.18;63.19
73780;SHT30;62093;37.614;15.072;2023-04-21T01:22:07;16.18;63.26
73780;SHT30;62093;37.614;15.072;2023-04-21T01:27:10;16.16;63.24
73780;SHT30;62093;37.614;15.072;2023-04-21T01:29:38;16.15;63.25
73780;SHT30;62093;37.614;15.072;2023-04-21T01:32:06;16.18;63.24
73780;SHT30;62093;37.614;15.072;2023-04-21T01:34:32;16.16;63.31
73780;SHT30;62093;37.614;15.072;2023-04-21T01:36:58;16.13;63.38
73780;SHT30;62093;37.614;15.072;2023-04-21T01:39:24;16.11;63.42
73780;SHT30;62093;37.614;15.072;2023-04-21T01:41:50;16.11;63.44
73780;SHT30;62093;37.614;15.072;2023-04-21T01:44:16;16.12;63.46
73780;SHT30;62093;37.614;15.072;2023-04-21T01:46:42;16.11;63.46
73780;SHT30;62093;37.614;15.072;2023-04-21T01:49:08;16.09;63.46
73780;SHT30;62093;37.614;15.072;2023-04-21T01:51:34;16.11;63.51
73780;SHT30;62093;37.614;15.072;2023-04-21T01:53:59;16.11;63.47
73780;SHT30;62093;37.614;15.072;2023-04-21T01:56:26;16.12;63.46
73780;SHT30;62093;37.614;15.072;2023-04-21T01:58:51;16.12;63.49
73780;SHT30;62093;37.614;15.072;2023-04-21T02:01:17;16.08;63.55
73780;SHT30;62093;37.614;15.072;2023-04-21T02:03:43;16.09;63.58
73780;SHT30;62093;37.614;15.072;2023-04-21T02:06:10;16.06;63.63
73780;SHT30;62093;37.614;15.072;2023-04-21T02:08:36;16.09;63.60
73780;SHT30;62093;37.614;15.072;2023-04-21T02:11:02;16.06;63.63
73780;SHT30;62093;37.614;15.072;2023-04-21T02:13:28;16.06;63.61
73780;SHT30;62093;37.614;15.072;2023-04-21T02:15:53;16.05;63.66
73780;SHT30;62093;37.614;15.072;2023-04-21T02:18:19;16.05;63.67
73780;SHT30;62093;37.614;15.072;2023-04-21T02:20:46;16.06;63.65
73780;SHT30;62093;37.614;15.072;2023-04-21T02:23:12;16.05;63.68
73780;SHT30;62093;37.614;15.072;2023-04-21T02:25:38;16.04;63.67
73780;SHT30;62093;37.614;15.072;2023-04-21T02:28:04;16.05;63.68
73780;SHT30;62093;37.614;15.072;2023-04-21T02:30:30;16.05;63.63
73780;SHT30;62093;37.614;15.072;2023-04-21T02:32:56;16.02;63.74
73780;SHT30;62093;37.614;15.072;2023-04-21T02:35:22;16.05;63.68
73780;SHT30;62093;37.614;15.072;2023-04-21T02:37:49;16.02;63.69
73780;SHT30;62093;37.614;15.072;2023-04-21T02:40:15;16.04;63.68
73780;SHT30;62093;37.614;15.072;2023-04-21T02:42:41;16.01;63.73
73780;SHT30;62093;37.614;15.072;2023-04-21T02:45:08;16.02;63.63
73780;SHT30;62093;37.614;15.072;2023-04-21T02:47:35;16.01;63.70
73780;SHT30;62093;37.614;15.072;2023-04-21T02:50:02;16.00;63.65
73780;SHT30;62093;37.614;15.072;2023-04-21T02:52:28;16.01;63.49
73780;SHT30;62093;37.614;15.072;2023-04-21T02:54:54;16.02;63.46
73780;SHT30;62093;37.614;15.072;2023-04-21T02:57:20;15.98;63.39
73780;SHT30;62093;37.614;15.072;2023-04-21T02:59:46;16.01;63.49
73780;SHT30;62093;37.614;15.072;2023-04-21T03:02:12;15.97;63.43
73780;SHT30;62093;37.614;15.072;2023-04-21T03:04:37;16.00;63.41
73780;SHT30;62093;37.614;15.072;2023-04-21T03:07:03;16.01;63.28
73780;SHT30;62093;37.614;15.072;2023-04-21T03:09:31;15.98;63.40
73780;SHT30;62093;37.614;15.072;2023-04-21T03:11:58;16.00;63.14
73780;SHT30;62093;37.614;15.072;2023-04-21T03:14:24;15.98;63.23
73780;SHT30;62093;37.614;15.072;2023-04-21T03:16:50;15.97;63.15
73780;SHT30;62093;37.614;15.072;2023-04-21T03:19:16;16.00;63.27
73780;SHT30;62093;37.614;15.072;2023-04-21T03:21:41;15.97;63.00
73780;SHT30;62093;37.614;15.072;2023-04-21T03:24:07;15.97;62.97
73780;SHT30;62093;37.614;15.072;2023-04-21T03:26:34;16.00;62.93
73780;SHT30;62093;37.614;15.072;2023-04-21T03:29:00;16.00;62.90
73780;SHT30;62093;37.614;15.072;2023-04-21T03:31:26;16.00;62.77
73780;SHT30;62093;37.614;15.072;2023-04-21T03:33:52;15.98;63.10
73780;SHT30;62093;37.614;15.072;2023-04-21T03:36:18;15.98;62.83
73780;SHT30;62093;37.614;15.072;2023-04-21T03:38:44;15.98;63.03
73780;SHT30;62093;37.614;15.072;2023-04-21T03:41:10;16.01;62.52
73780;SHT30;62093;37.614;15.072;2023-04-21T03:43:36;16.00;62.83
73780;SHT30;62093;37.614;15.072;2023-04-21T03:46:02;16.00;62.72
73780;SHT30;62093;37.614;15.072;2023-04-21T03:48:28;16.01;62.85
73780;SHT30;62093;37.614;15.072;2023-04-21T03:50:54;15.98;62.78
73780;SHT30;62093;37.614;15.072;2023-04-21T03:53:20;15.98;62.84
73780;SHT30;62093;37.614;15.072;2023-04-21T03:55:45;16.00;63.05
73780;SHT30;62093;37.614;15.072;2023-04-21T03:58:14;15.97;62.74
73780;SHT30;62093;37.614;15.072;2023-04-21T04:00:41;16.00;62.93
73780;SHT30;62093;37.614;15.072;2023-04-21T04:03:07;15.98;62.73
73780;SHT30;62093;37.614;15.072;2023-04-21T04:05:34;15.98;63.02
73780;SHT30;62093;37.614;15.072;2023-04-21T04:08:00;15.95;62.68
73780;SHT30;62093;37.614;15.072;2023-04-21T04:10:26;15.95;62.80
73780;SHT30;62093;37.614;15.072;2023-04-21T04:12:52;15.97;62.55
73780;SHT30;62093;37.614;15.072;2023-04-21T04:15:19;15.95;62.60
73780;SHT30;62093;37.614;15.072;2023-04-21T04:17:45;15.94;62.53
73780;SHT30;62093;37.614;15.072;2023-04-21T04:20:11;15.97;62.71
73780;SHT30;62093;37.614;15.072;2023-04-21T04:22:37;15.92;62.73
73780;SHT30;62093;37.614;15.072;2023-04-21T04:25:04;15.95;62.66
73780;SHT30;62093;37.614;15.072;2023-04-21T04:27:30;15.92;62.77
73780;SHT30;62093;37.614;15.072;2023-04-21T04:29:56;15.97;62.76
73780;SHT30;62093;37.614;15.072;2023-04-21T04:32:22;16.00;62.86
73780;SHT30;62093;37.614;15.072;2023-04-21T04:34:53;15.95;62.47
73780;SHT30;62093;37.614;15.072;2023-04-21T04:37:20;15.91;62.88
73780;SHT30;62093;37.614;15.072;2023-04-21T04:39:46;15.94;62.80
73780;SHT30;62093;37.614;15.072;2023-04-21T04:42:12;15.94;62.87
73780;SHT30;62093;37.614;15.072;2023-04-21T04:44:39;15.94;62.59
73780;SHT30;62093;37.614;15.072;2023-04-21T04:47:06;15.95;62.47
73780;SHT30;62093;37.614;15.072;2023-04-21T04:49:31;15.97;62.93
73780;SHT30;62093;37.614;15.072;2023-04-21T04:51:57;16.00;62.46
73780;SHT30;62093;37.614;15.072;2023-04-21T04:54:24;15.95;62.81
73780;SHT30;62093;37.614;15.072;2023-04-21T04:56:50;16.00;62.89
73780;SHT30;62093;37.614;15.072;2023-04-21T04:59:15;15.97;63.22
73780;SHT30;62093;37.614;15.072;2023-04-21T05:01:41;15.95;63.20
73780;SHT30;62093;37.614;15.072;2023-04-21T05:04:07;15.98;63.25
73780;SHT30;62093;37.614;15.072;2023-04-21T05:06:33;15.97;63.19
73780;SHT30;62093;37.614;15.072;2023-04-21T05:08:59;15.94;63.12
73780;SHT30;62093;37.614;15.072;2023-04-21T05:11:25;15.97;63.31
73780;SHT30;62093;37.614;15.072;2023-04-21T05:13:51;15.95;63.27
73780;SHT30;62093;37.614;15.072;2023-04-21T05:16:17;15.98;63.38
73780;SHT30;62093;37.614;15.072;2023-04-21T05:18:42;15.97;63.38
73780;SHT30;62093;37.614;15.072;2023-04-21T05:21:08;15.95;63.48
73780;SHT30;62093;37.614;15.072;2023-04-21T05:23:34;15.97;63.46
73780;SHT30;62093;37.614;15.072;2023-04-21T05:26:00;15.97;63.47
73780;SHT30;62093;37.614;15.072;2023-04-21T05:28:26;15.98;63.48
73780;SHT30;62093;37.614;15.072;2023-04-21T05:30:54;15.97;63.55
73780;SHT30;62093;37.614;15.072;2023-04-21T05:33:20;15.98;63.47
73780;SHT30;62093;37.614;15.072;2023-04-21T05:35:46;16.00;63.60
73780;SHT30;62093;37.614;15.072;2023-04-21T05:38:12;16.01;63.54
73780;SHT30;62093;37.614;15.072;2023-04-21T05:40:37;16.01;63.53
73780;SHT30;62093;37.614;15.072;2023-04-21T05:43:03;16.00;63.71
73780;SHT30;62093;37.614;15.072;2023-04-21T05:45:29;15.98;63.59
73780;SHT30;62093;37.614;15.072;2023-04-21T05:47:55;16.02;63.63
73780;SHT30;62093;37.614;15.072;2023-04-21T05:50:20;16.00;63.62
73780;SHT30;62093;37.614;15.072;2023-04-21T05:52:46;16.00;63.64
73780;SHT30;62093;37.614;15.072;2023-04-21T05:55:12;16.02;63.64
73780;SHT30;62093;37.614;15.072;2023-04-21T05:57:38;16.02;63.79
73780;SHT30;62093;37.614;15.072;2023-04-21T06:00:04;16.01;63.70
73780;SHT30;62093;37.614;15.072;2023-04-21T06:02:31;16.02;63.63
73780;SHT30;62093;37.614;15.072;2023-04-21T06:04:57;16.04;63.67
73780;SHT30;62093;37.614;15.072;2023-04-21T06:07:23;16.04;63.60
73780;SHT30;62093;37.614;15.072;2023-04-21T06:09:49;16.04;63.58
73780;SHT30;62093;37.614;15.072;2023-04-21T06:12:15;16.04;63.64
73780;SHT30;62093;37.614;15.072;2023-04-21T06:14:41;16.08;63.59
73780;SHT30;62093;37.614;15.072;2023-04-21T06:17:07;16.08;63.63
73780;SHT30;62093;37.614;15.072;2023-04-21T06:19:36;16.11;63.62
73780;SHT30;62093;37.614;15.072;2023-04-21T06:22:02;16.13;63.51
73780;SHT30;62093;37.614;15.072;2023-04-21T06:24:31;16.12;63.55
73780;SHT30;62093;37.614;15.072;2023-04-21T06:26:57;16.09;63.59
73780;SHT30;62093;37.614;15.072;2023-04-21T06:29:23;16.08;63.53
73780;SHT30;62093;37.614;15.072;2023-04-21T06:31:48;16.13;63.53
73780;SHT30;62093;37.614;15.072;2023-04-21T06:34:14;16.15;63.55
73780;SHT30;62093;37.614;15.072;2023-04-21T06:36:40;16.13;63.51
73780;SHT30;62093;37.614;15.072;2023-04-21T06:39:06;16.13;63.45
73780;SHT30;62093;37.614;15.072;2023-04-21T06:41:32;16.15;63.42
73780;SHT30;62093;37.614;15.072;2023-04-21T06:43:58;16.19;63.41
73780;SHT30;62093;37.614;15.072;2023-04-21T06:46:24;16.18;63.41
73780;SHT30;62093;37.614;15.072;2023-04-21T06:48:50;16.19;63.36
73780;SHT30;62093;37.614;15.072;2023-04-21T06:51:16;16.19;63.37
73780;SHT30;62093;37.614;15.072;2023-04-21T06:53:41;16.18;63.37
73780;SHT30;62093;37.614;15.072;2023-04-21T06:56:07;16.21;63.32
73780;SHT30;62093;37.614;15.072;2023-04-21T06:58:33;16.22;63.26
73780;SHT30;62093;37.614;15.072;2023-04-21T07:00:59;16.25;63.19
73780;SHT30;62093;37.614;15.072;2023-04-21T07:03:25;16.25;63.21
73780;SHT30;62093;37.614;15.072;2023-04-21T07:05:50;16.25;63.16
73780;SHT30;62093;37.614;15.072;2023-04-21T07:08:16;16.23;63.10
73780;SHT30;62093;37.614;15.072;2023-04-21T07:10:42;16.26;62.99
73780;SHT30;62093;37.614;15.072;2023-04-21T07:13:08;16.28;62.88
73780;SHT30;62093;37.614;15.072;2023-04-21T07:15:34;16.29;62.73
73780;SHT30;62093;37.614;15.072;2023-04-21T07:18:00;16.26;62.80
73780;SHT30;62093;37.614;15.072;2023-04-21T07:20:26;16.26;62.56
73780;SHT30;62093;37.614;15.072;2023-04-21T07:22:52;16.29;62.54
73780;SHT30;62093;37.614;15.072;2023-04-21T07:25:18;16.32;62.50
73780;SHT30;62093;37.614;15.072;2023-04-21T07:27:43;16.30;62.60
73780;SHT30;62093;37.614;15.072;2023-04-21T07:30:10;16.33;62.44
73780;SHT30;62093;37.614;15.072;2023-04-21T07:32:36;16.30;62.45
73780;SHT30;62093;37.614;15.072;2023-04-21T07:35:04;16.33;62.50
73780;SHT30;62093;37.614;15.072;2023-04-21T07:37:30;16.33;62.45
73780;SHT30;62093;37.614;15.072;2023-04-21T07:39:56;16.35;62.48
73780;SHT30;62093;37.614;15.072;2023-04-21T07:42:22;16.32;62.41
73780;SHT30;62093;37.614;15.072;2023-04-21T07:44:47;16.32;62.55
73780;SHT30;62093;37.614;15.072;2023-04-21T07:47:13;16.33;62.61
73780;SHT30;62093;37.614;15.072;2023-04-21T07:49:40;16.33;62.59
73780;SHT30;62093;37.614;15.072;2023-04-21T07:52:06;16.36;62.62
73780;SHT30;62093;37.614;15.072;2023-04-21T07:54:32;16.39;62.58
73780;SHT30;62093;37.614;15.072;2023-04-21T07:56:57;16.36;62.54
73780;SHT30;62093;37.614;15.072;2023-04-21T07:59:24;16.42;62.53
73780;SHT30;62093;37.614;15.072;2023-04-21T08:01:50;16.38;62.57
73780;SHT30;62093;37.614;15.072;2023-04-21T08:04:16;16.39;62.50
73780;SHT30;62093;37.614;15.072;2023-04-21T08:06:42;16.41;62.06
73780;SHT30;62093;37.614;15.072;2023-04-21T08:09:08;16.42;62.04
73780;SHT30;62093;37.614;15.072;2023-04-21T08:11:34;16.43;61.92
73780;SHT30;62093;37.614;15.072;2023-04-21T08:14:00;16.45;62.21
73780;SHT30;62093;37.614;15.072;2023-04-21T08:16:26;16.43;62.23
73780;SHT30;62093;37.614;15.072;2023-04-21T08:18:52;16.42;62.23
73780;SHT30;62093;37.614;15.072;2023-04-21T08:21:18;16.45;62.29
73780;SHT30;62093;37.614;15.072;2023-04-21T08:23:44;16.45;62.26
73780;SHT30;62093;37.614;15.072;2023-04-21T08:26:10;16.45;62.32
73780;SHT30;62093;37.614;15.072;2023-04-21T08:28:35;16.48;62.29
73780;SHT30;62093;37.614;15.072;2023-04-21T08:31:01;16.46;62.31
73780;SHT30;62093;37.614;15.072;2023-04-21T08:33:27;16.49;62.34
73780;SHT30;62093;37.614;15.072;2023-04-21T08:35:53;16.49;62.32
73780;SHT30;62093;37.614;15.072;2023-04-21T08:38:19;16.48;62.34
73780;SHT30;62093;37.614;15.072;2023-04-21T08:40:45;16.49;62.30
73780;SHT30;62093;37.614;15.072;2023-04-21T08:43:10;16.51;62.33
73780;SHT30;62093;37.614;15.072;2023-04-21T08:45:38;16.52;62.25
73780;SHT30;62093;37.614;15.072;2023-04-21T08:48:04;16.53;62.17
73780;SHT30;62093;37.614;15.072;2023-04-21T08:50:31;16.55;61.95
73780;SHT30;62093;37.614;15.072;2023-04-21T08:52:58;16.56;62.01
73780;SHT30;62093;37.614;15.072;2023-04-21T08:55:27;16.55;62.01
73780;SHT30;62093;37.614;15.072;2023-04-21T08:57:53;16.56;61.91
73780;SHT30;62093;37.614;15.072;2023-04-21T09:00:19;16.56;61.99
73780;SHT30;62093;37.614;15.072;2023-04-21T09:02:54;16.59;61.94
73780;SHT30;62093;37.614;15.072;2023-04-21T09:05:22;16.60;61.89
73780;SHT30;62093;37.614;15.072;2023-04-21T09:07:48;16.60;61.95
73780;SHT30;62093;37.614;15.072;2023-04-21T09:10:21;16.60;61.96
73780;SHT30;62093;37.614;15.072;2023-04-21T09:12:50;16.57;61.96
73780;SHT30;62093;37.614;15.072;2023-04-21T09:15:19;16.63;61.89
73780;SHT30;62093;37.614;15.072;2023-04-21T09:17:46;16.63;61.90
73780;SHT30;62093;37.614;15.072;2023-04-21T09:20:18;16.63;61.88
73780;SHT30;62093;37.614;15.072;2023-04-21T09:22:44;16.63;61.84
73780;SHT30;62093;37.614;15.072;2023-04-21T09:25:15;16.63;61.86
73780;SHT30;62093;37.614;15.072;2023-04-21T09:27:42;16.63;61.79
73780;SHT30;62093;37.614;15.072;2023-04-21T09:30:08;16.63;61.82
73780;SHT30;62093;37.614;15.072;2023-04-21T09:32:38;16.66;61.78
73780;SHT30;62093;37.614;15.072;2023-04-21T09:35:08;16.67;61.81
73780;SHT30;62093;37.614;15.072;2023-04-21T09:37:37;16.64;61.80
73780;SHT30;62093;37.614;15.072;2023-04-21T09:40:04;16.69;61.72
73780;SHT30;62093;37.614;15.072;2023-04-21T09:42:33;16.70;61.69
73780;SHT30;62093;37.614;15.072;2023-04-21T09:45:00;16.72;61.73
73780;SHT30;62093;37.614;15.072;2023-04-21T09:47:28;16.69;61.73
73780;SHT30;62093;37.614;15.072;2023-04-21T09:49:54;16.70;61.67
73780;SHT30;62093;37.614;15.072;2023-04-21T09:52:23;16.66;61.65
73780;SHT30;62093;37.614;15.072;2023-04-21T09:54:54;16.67;61.70
73780;SHT30;62093;37.614;15.072;2023-04-21T09:57:24;16.72;61.68
73780;SHT30;62093;37.614;15.072;2023-04-21T09:59:54;16.73;61.66
73780;SHT30;62093;37.614;15.072;2023-04-21T10:02:24;16.76;61.57
73780;SHT30;62093;37.614;15.072;2023-04-21T10:04:51;16.76;61.59
73780;SHT30;62093;37.614;15.072;2023-04-21T10:07:17;16.76;61.59
73780;SHT30;62093;37.614;15.072;2023-04-21T10:09:48;16.77;61.62
73780;SHT30;62093;37.614;15.072;2023-04-21T10:12:16;16.80;61.52
73780;SHT30;62093;37.614;15.072;2023-04-21T10:14:42;16.80;61.49
73780;SHT30;62093;37.614;15.072;2023-04-21T10:17:09;16.81;61.49
73780;SHT30;62093;37.614;15.072;2023-04-21T10:19:36;16.80;61.58
73780;SHT30;62093;37.614;15.072;2023-04-21T10:22:09;16.80;61.55
73780;SHT30;62093;37.614;15.072;2023-04-21T10:24:39;16.80;61.57
73780;SHT30;62093;37.614;15.072;2023-04-21T10:27:11;16.83;61.53
73780;SHT30;62093;37.614;15.072;2023-04-21T10:29:54;16.84;61.54
73780;SHT30;62093;37.614;15.072;2023-04-21T10:32:46;16.85;61.48
73780;SHT30;62093;37.614;15.072;2023-04-21T10:35:14;16.88;61.46
73780;SHT30;62093;37.614;15.072;2023-04-21T10:37:42;16.88;61.43
73780;SHT30;62093;37.614;15.072;2023-04-21T10:42:57;16.87;61.43
73780;SHT30;62093;37.614;15.072;2023-04-21T10:45:26;16.88;61.49
73780;SHT30;62093;37.614;15.072;2023-04-21T10:47:52;16.90;61.42
73780;SHT30;62093;37.614;15.072;2023-04-21T10:52:51;16.94;61.35
73780;SHT30;62093;37.614;15.072;2023-04-21T10:55:17;16.93;61.44
73780;SHT30;62093;37.614;15.072;2023-04-21T10:57:45;16.94;61.35
73780;SHT30;62093;37.614;15.072;2023-04-21T11:00:19;16.95;61.38
73780;SHT30;62093;37.614;15.072;2023-04-21T11:02:53;16.95;61.36
73780;SHT30;62093;37.614;15.072;2023-04-21T11:05:26;16.97;61.36
73780;SHT30;62093;37.614;15.072;2023-04-21T11:08:03;16.95;61.39
73780;SHT30;62093;37.614;15.072;2023-04-21T11:10:40;16.97;61.43
73780;SHT30;62093;37.614;15.072;2023-04-21T11:13:07;16.97;61.32
73780;SHT30;62093;37.614;15.072;2023-04-21T11:15:33;17.00;61.27
73780;SHT30;62093;37.614;15.072;2023-04-21T11:17:59;16.95;61.27
73780;SHT30;62093;37.614;15.072;2023-04-21T11:20:25;17.00;61.35
73780;SHT30;62093;37.614;15.072;2023-04-21T11:22:51;16.99;61.30
73780;SHT30;62093;37.614;15.072;2023-04-21T11:25:20;16.99;61.26
73780;SHT30;62093;37.614;15.072;2023-04-21T11:27:54;17.01;61.26
73780;SHT30;62093;37.614;15.072;2023-04-21T11:30:29;17.00;61.23
73780;SHT30;62093;37.614;15.072;2023-04-21T11:32:56;17.00;61.26
73780;SHT30;62093;37.614;15.072;2023-04-21T11:35:21;17.03;61.33
73780;SHT30;62093;37.614;15.072;2023-04-21T11:37:49;17.04;61.22
73780;SHT30;62093;37.614;15.072;2023-04-21T11:40:17;17.03;61.33
73780;SHT30;62093;37.614;15.072;2023-04-21T11:42:43;17.01;61.19
73780;SHT30;62093;37.614;15.072;2023-04-21T11:45:16;17.04;61.13
73780;SHT30;62093;37.614;15.072;2023-04-21T11:47:42;17.01;61.11
73780;SHT30;62093;37.614;15.072;2023-04-21T11:50:08;17.03;61.15
73780;SHT30;62093;37.614;15.072;2023-04-21T11:52:35;17.03;61.14
73780;SHT30;62093;37.614;15.072;2023-04-21T11:55:10;17.03;61.13
73780;SHT30;62093;37.614;15.072;2023-04-21T11:57:38;17.06;61.12
73780;SHT30;62093;37.614;15.072;2023-04-21T12:00:07;17.07;61.08
73780;SHT30;62093;37.614;15.072;2023-04-21T12:02:35;17.07;61.13
73780;SHT30;62093;37.614;15.072;2023-04-21T12:05:04;17.07;61.05
73780;SHT30;62093;37.614;15.072;2023-04-21T12:07:37;17.11;61.05
73780;SHT30;62093;37.614;15.072;2023-04-21T12:10:11;17.11;61.01
73780;SHT30;62093;37.614;15.072;2023-04-21T12:12:39;17.13;61.00
73780;SHT30;62093;37.614;15.072;2023-04-21T12:15:06;17.13;60.94
73780;SHT30;62093;37.614;15.072;2023-04-21T12:17:58;17.14;60.87
73780;SHT30;62093;37.614;15.072;2023-04-21T12:20:27;17.17;60.84
73780;SHT30;62093;37.614;15.072;2023-04-21T12:22:54;17.15;60.79
73780;SHT30;62093;37.614;15.072;2023-04-21T12:25:21;17.17;60.71
73780;SHT30;62093;37.614;15.072;2023-04-21T12:27:51;17.15;60.68
73780;SHT30;62093;37.614;15.072;2023-04-21T12:30:17;17.17;60.65
73780;SHT30;62093;37.614;15.072;2023-04-21T12:32:43;17.17;60.52
73780;SHT30;62093;37.614;15.072;2023-04-21T12:35:09;17.20;60.61
73780;SHT30;62093;37.614;15.072;2023-04-21T12:37:36;17.23;60.59
73780;SHT30;62093;37.614;15.072;2023-04-21T12:40:02;17.20;60.57
73780;SHT30;62093;37.614;15.072;2023-04-21T12:42:28;17.21;60.51
73780;SHT30;62093;37.614;15.072;2023-04-21T12:44:53;17.21;60.41
73780;SHT30;62093;37.614;15.072;2023-04-21T12:47:19;17.24;60.26
73780;SHT30;62093;37.614;15.072;2023-04-21T12:49:45;17.25;60.49
73780;SHT30;62093;37.614;15.072;2023-04-21T12:52:11;17.25;60.50
73780;SHT30;62093;37.614;15.072;2023-04-21T12:54:37;17.24;60.46
73780;SHT30;62093;37.614;15.072;2023-04-21T12:57:03;17.25;60.46
73780;SHT30;62093;37.614;15.072;2023-04-21T12:59:28;17.28;60.44
73780;SHT30;62093;37.614;15.072;2023-04-21T13:01:54;17.27;60.37
73780;SHT30;62093;37.614;15.072;2023-04-21T13:04:20;17.30;60.42
73780;SHT30;62093;37.614;15.072;2023-04-21T13:06:46;17.31;60.36
73780;SHT30;62093;37.614;15.072;2023-04-21T13:09:12;17.30;60.40
73780;SHT30;62093;37.614;15.072;2023-04-21T13:11:38;17.31;60.23
73780;SHT30;62093;37.614;15.072;2023-04-21T13:14:04;17.31;60.28
73780;SHT30;62093;37.614;15.072;2023-04-21T13:16:30;17.32;60.27
73780;SHT30;62093;37.614;15.072;2023-04-21T13:18:56;17.34;60.24
73780;SHT30;62093;37.614;15.072;2023-04-21T13:21:22;17.32;60.21
73780;SHT30;62093;37.614;15.072;2023-04-21T13:23:47;17.34;60.16
73780;SHT30;62093;37.614;15.072;2023-04-21T13:26:13;17.35;60.28
73780;SHT30;62093;37.614;15.072;2023-04-21T13:28:39;17.34;60.14
73780;SHT30;62093;37.614;15.072;2023-04-21T13:31:05;17.36;60.08
73780;SHT30;62093;37.614;15.072;2023-04-21T13:33:32;17.36;59.98
73780;SHT30;62093;37.614;15.072;2023-04-21T13:36:03;17.38;60.02
73780;SHT30;62093;37.614;15.072;2023-04-21T13:38:29;17.38;60.14
73780;SHT30;62093;37.614;15.072;2023-04-21T13:40:56;17.41;60.04
73780;SHT30;62093;37.614;15.072;2023-04-21T13:43:22;17.39;60.15
73780;SHT30;62093;37.614;15.072;2023-04-21T13:45:48;17.41;60.07
73780;SHT30;62093;37.614;15.072;2023-04-21T13:48:18;17.41;59.98
73780;SHT30;62093;37.614;15.072;2023-04-21T13:50:45;17.39;59.90
73780;SHT30;62093;37.614;15.072;2023-04-21T13:53:10;17.41;59.93
73780;SHT30;62093;37.614;15.072;2023-04-21T13:55:38;17.44;59.95
73780;SHT30;62093;37.614;15.072;2023-04-21T13:58:04;17.44;59.91
73780;SHT30;62093;37.614;15.072;2023-04-21T14:00:31;17.44;59.86
73780;SHT30;62093;37.614;15.072;2023-04-21T14:02:57;17.46;59.89
73780;SHT30;62093;37.614;15.072;2023-04-21T14:05:23;17.45;59.83
73780;SHT30;62093;37.614;15.072;2023-04-21T14:07:48;17.45;59.84
73780;SHT30;62093;37.614;15.072;2023-04-21T14:10:14;17.45;59.81
73780;SHT30;62093;37.614;15.072;2023-04-21T14:12:40;17.45;59.83
73780;SHT30;62093;37.614;15.072;2023-04-21T14:15:07;17.49;59.89
73780;SHT30;62093;37.614;15.072;2023-04-21T14:17:33;17.46;59.91
73780;SHT30;62093;37.614;15.072;2023-04-21T14:19:58;17.49;59.87
73780;SHT30;62093;37.614;15.072;2023-04-21T14:22:24;17.49;59.90
73780;SHT30;62093;37.614;15.072;2023-04-21T14:24:50;17.49;59.87
73780;SHT30;62093;37.614;15.072;2023-04-21T14:27:16;17.51;59.93
73780;SHT30;62093;37.614;15.072;2023-04-21T14:29:42;17.49;59.91
73780;SHT30;62093;37.614;15.072;2023-04-21T14:32:08;17.51;59.91
73780;SHT30;62093;37.614;15.072;2023-04-21T14:34:33;17.52;59.92
73780;SHT30;62093;37.614;15.072;2023-04-21T14:37:00;17.54;59.85
73780;SHT30;62093;37.614;15.072;2023-04-21T14:39:26;17.55;59.91
73780;SHT30;62093;37.614;15.072;2023-04-21T14:41:52;17.54;59.89
73780;SHT30;62093;37.614;15.072;2023-04-21T14:44:18;17.54;59.86
73780;SHT30;62093;37.614;15.072;2023-04-21T14:46:43;17.52;59.89
73780;SHT30;62093;37.614;15.072;2023-04-21T14:49:10;17.52;59.93
73780;SHT30;62093;37.614;15.072;2023-04-21T14:51:36;17.56;59.84
73780;SHT30;62093;37.614;15.072;2023-04-21T14:54:03;17.55;59.85
73780;SHT30;62093;37.614;15.072;2023-04-21T14:56:29;17.55;59.85
73780;SHT30;62093;37.614;15.072;2023-04-21T14:58:55;17.56;59.83
73780;SHT30;62093;37.614;15.072;2023-04-21T15:01:21;17.56;59.82
73780;SHT30;62093;37.614;15.072;2023-04-21T15:03:47;17.56;59.87
73780;SHT30;62093;37.614;15.072;2023-04-21T15:06:13;17.58;59.89
73780;SHT30;62093;37.614;15.072;2023-04-21T15:08:40;17.56;59.84
73780;SHT30;62093;37.614;15.072;2023-04-21T15:11:06;17.58;59.82
73780;SHT30;62093;37.614;15.072;2023-04-21T15:13:32;17.58;59.80
73780;SHT30;62093;37.614;15.072;2023-04-21T15:15:58;17.56;59.89
73780;SHT30;62093;37.614;15.072;2023-04-21T15:18:24;17.58;59.79
73780;SHT30;62093;37.614;15.072;2023-04-21T15:20:50;17.59;59.86